createdAt,value
2022-11-05T00:01:32.662Z,59.66
2022-11-05T00:04:15.051Z,59.54
2022-11-05T00:06:57.671Z,59.50
2022-11-05T00:09:33.678Z,59.76
2022-11-05T00:12:18.136Z,59.58
2022-11-05T00:15:03.413Z,59.58
2022-11-05T00:17:33.597Z,59.62
2022-11-05T00:20:03.454Z,59.77
2022-11-05T00:22:45.717Z,59.72
2022-11-05T00:25:22.159Z,59.76
2022-11-05T00:27:53.307Z,59.97
2022-11-05T00:30:28.589Z,59.95
2022-11-05T00:33:03.866Z,60.17
2022-11-05T00:35:33.628Z,60.14
2022-11-05T00:38:03.390Z,60.32
2022-11-05T00:40:33.285Z,60.35
2022-11-05T00:43:15.553Z,60.36
2022-11-05T00:45:47.941Z,60.31
2022-11-05T00:48:30.151Z,60.23
2022-11-05T00:50:59.940Z,60.42
2022-11-05T00:53:29.938Z,60.32
2022-11-05T00:56:00.473Z,60.33
2022-11-05T00:58:31.151Z,60.33
2022-11-05T01:01:05.513Z,60.20
2022-11-05T01:03:37.926Z,60.15
2022-11-05T01:06:13.030Z,60.07
2022-11-05T01:08:44.236Z,60.13
2022-11-05T01:11:33.526Z,60.16
2022-11-05T01:14:04.163Z,60.06
2022-11-05T01:16:37.581Z,60.12
2022-11-05T01:19:11.244Z,60.24
2022-11-05T01:21:41.091Z,60.24
2022-11-05T01:24:13.394Z,59.87
2022-11-05T01:26:43.101Z,59.90
2022-11-05T01:29:13.869Z,59.99
2022-11-05T01:31:46.383Z,59.98
2022-11-05T01:34:16.163Z,59.72
2022-11-05T01:36:45.964Z,59.91
2022-11-05T01:39:15.958Z,59.84
2022-11-05T01:41:45.726Z,59.96
2022-11-05T01:44:47.087Z,60.15
2022-11-05T01:47:32.711Z,59.96
2022-11-05T01:50:06.509Z,59.70
2022-11-05T01:52:38.567Z,59.80
2022-11-05T01:55:10.158Z,59.86
2022-11-05T01:57:40.692Z,59.88
2022-11-05T02:00:12.208Z,60.01
2022-11-05T02:02:47.433Z,60.05
2022-11-05T02:05:18.486Z,59.77
2022-11-05T02:07:49.902Z,59.83
2022-11-05T02:10:20.666Z,59.84
2022-11-05T02:12:51.106Z,59.72
2022-11-05T02:15:28.466Z,59.92
2022-11-05T02:18:15.786Z,59.87
2022-11-05T02:20:52.697Z,59.97
2022-11-05T02:23:47.320Z,59.73
2022-11-05T02:26:44.484Z,59.77
2022-11-05T02:29:45.513Z,59.96
2022-11-05T02:32:30.180Z,59.65
2022-11-05T02:35:10.255Z,59.72
2022-11-05T02:37:43.526Z,59.70
2022-11-05T02:40:19.252Z,59.65
2022-11-05T02:42:59.310Z,59.74
2022-11-05T02:45:41.317Z,59.68
2022-11-05T02:48:22.358Z,59.49
2022-11-05T02:50:56.640Z,59.56
2022-11-05T02:53:36.999Z,59.79
2022-11-05T02:56:13.073Z,59.64
2022-11-05T02:58:42.832Z,59.51
2022-11-05T03:01:14.415Z,59.57
2022-11-05T03:03:50.101Z,59.65
2022-11-05T03:06:43.315Z,59.75
2022-11-05T03:09:30.903Z,59.51
2022-11-05T03:12:08.503Z,59.29
2022-11-05T03:14:47.403Z,59.50
2022-11-05T03:17:27.301Z,59.27
2022-11-05T03:20:10.160Z,59.35
2022-11-05T03:22:50.337Z,59.22
2022-11-05T03:25:24.564Z,59.21
2022-11-05T03:28:00.336Z,59.12
2022-11-05T03:30:30.202Z,58.97
2022-11-05T03:33:03.609Z,59.00
2022-11-05T03:35:40.939Z,59.03
2022-11-05T03:38:16.014Z,58.74
2022-11-05T03:40:50.289Z,58.78
2022-11-05T03:43:22.947Z,58.68
2022-11-05T03:45:57.229Z,58.68
2022-11-05T03:48:30.733Z,58.49
2022-11-05T03:51:09.382Z,58.74
2022-11-05T03:53:45.640Z,58.51
2022-11-05T03:56:21.876Z,58.42
2022-11-05T03:58:58.458Z,58.32
2022-11-05T04:01:29.777Z,58.37
2022-11-05T04:03:59.612Z,58.36
2022-11-05T04:06:44.387Z,58.48
2022-11-05T04:09:35.000Z,58.39
2022-11-05T04:12:17.174Z,58.27
2022-11-05T04:14:47.006Z,58.43
2022-11-05T04:17:14.251Z,58.25
2022-11-05T04:19:58.667Z,58.32
2022-11-05T04:22:45.373Z,58.46
2022-11-05T04:25:16.377Z,58.30
2022-11-05T04:27:46.697Z,58.36
2022-11-05T04:30:21.848Z,58.30
2022-11-05T04:33:03.538Z,58.52
2022-11-05T04:35:34.847Z,58.32
2022-11-05T04:38:08.357Z,58.45
2022-11-05T04:40:38.824Z,58.29
2022-11-05T04:43:14.624Z,58.42
2022-11-05T04:45:45.502Z,58.29
2022-11-05T04:48:15.671Z,58.27
2022-11-05T04:50:45.446Z,58.30
2022-11-05T04:53:17.781Z,58.26
2022-11-05T04:55:47.523Z,58.25
2022-11-05T04:58:17.300Z,58.32
2022-11-05T05:00:47.121Z,58.33
2022-11-05T05:03:16.884Z,58.39
2022-11-05T05:05:46.595Z,58.35
2022-11-05T05:08:18.921Z,58.43
2022-11-05T05:10:48.672Z,58.50
2022-11-05T05:13:18.481Z,58.36
2022-11-05T05:15:48.283Z,58.34
2022-11-05T05:18:18.059Z,58.44
2022-11-05T05:21:00.277Z,58.23
2022-11-05T05:23:32.667Z,58.25
2022-11-05T05:26:02.660Z,58.29
2022-11-05T05:28:32.413Z,58.25
2022-11-05T05:31:02.832Z,58.38
2022-11-05T05:33:32.672Z,58.41
2022-11-05T05:36:06.996Z,58.16
2022-11-05T05:38:42.632Z,58.19
2022-11-05T05:41:12.364Z,58.09
2022-11-05T05:43:42.176Z,58.04
2022-11-05T05:46:14.747Z,58.10
2022-11-05T05:48:45.419Z,57.88
2022-11-05T05:51:15.148Z,58.22
2022-11-05T05:53:48.024Z,58.18
2022-11-05T05:56:20.581Z,57.98
2022-11-05T05:58:50.922Z,58.67
2022-11-05T06:01:21.348Z,58.69
2022-11-05T06:03:51.996Z,58.19
2022-11-05T06:06:22.783Z,57.91
2022-11-05T06:08:55.174Z,57.92
2022-11-05T06:11:25.052Z,57.91
2022-11-05T06:13:54.987Z,57.83
2022-11-05T06:16:24.722Z,57.83
2022-11-05T06:18:54.714Z,57.87
2022-11-05T06:21:24.504Z,57.75
2022-11-05T06:23:56.859Z,57.92
2022-11-05T06:26:26.643Z,57.65
2022-11-05T06:28:56.415Z,57.71
2022-11-05T06:31:26.477Z,57.75
2022-11-05T06:33:56.261Z,57.64
2022-11-05T06:36:26.056Z,57.56
2022-11-05T06:38:58.540Z,57.65
2022-11-05T06:41:28.398Z,57.73
2022-11-05T06:43:58.216Z,57.61
2022-11-05T06:46:28.042Z,57.61
2022-11-05T06:48:57.853Z,57.53
2022-11-05T06:51:27.652Z,57.63
2022-11-05T06:54:00.459Z,57.62
2022-11-05T06:56:30.326Z,57.65
2022-11-05T06:59:00.112Z,57.52
2022-11-05T07:01:29.980Z,57.27
2022-11-05T07:03:59.887Z,57.32
2022-11-05T07:06:33.082Z,57.17
2022-11-05T07:09:09.154Z,57.21
2022-11-05T07:11:38.949Z,57.08
2022-11-05T07:14:08.721Z,57.06
2022-11-05T07:16:38.580Z,57.08
2022-11-05T07:19:08.452Z,57.06
2022-11-05T07:21:38.187Z,57.02
2022-11-05T07:24:11.452Z,56.99
2022-11-05T07:26:41.244Z,56.90
2022-11-05T07:29:11.094Z,56.91
2022-11-05T07:31:41.030Z,56.95
2022-11-05T07:34:10.849Z,56.72
2022-11-05T07:36:41.480Z,56.53
2022-11-05T07:39:13.875Z,56.58
2022-11-05T07:41:43.630Z,56.43
2022-11-05T07:44:14.530Z,56.26
2022-11-05T07:46:44.417Z,56.12
2022-11-05T07:49:14.262Z,56.08
2022-11-05T07:51:44.079Z,55.86
2022-11-05T07:54:16.457Z,55.52
2022-11-05T07:56:46.221Z,55.39
2022-11-05T07:59:16.073Z,54.82
2022-11-05T08:01:45.985Z,54.17
2022-11-05T08:04:16.102Z,54.02
2022-11-05T08:06:46.051Z,53.63
2022-11-05T08:09:18.474Z,53.29
2022-11-05T08:11:51.143Z,53.25
2022-11-05T08:14:22.730Z,52.94
2022-11-05T08:16:52.500Z,53.22
2022-11-05T08:19:22.380Z,52.44
2022-11-05T08:21:52.481Z,52.12
2022-11-05T08:24:24.888Z,51.33
2022-11-05T08:26:55.957Z,50.48
2022-11-05T08:29:25.860Z,49.52
2022-11-05T08:31:55.624Z,48.93
2022-11-05T08:34:25.568Z,47.73
2022-11-05T08:36:55.298Z,46.49
2022-11-05T08:39:27.697Z,46.94
2022-11-05T08:41:57.558Z,46.23
2022-11-05T08:44:27.498Z,45.53
2022-11-05T08:46:57.321Z,44.97
2022-11-05T08:49:27.101Z,45.94
2022-11-05T08:51:56.903Z,45.95
2022-11-05T08:54:29.313Z,47.10
2022-11-05T08:56:59.128Z,46.41
2022-11-05T08:59:29.955Z,46.67
2022-11-05T09:02:00.030Z,47.52
2022-11-05T09:04:29.971Z,47.85
2022-11-05T09:06:59.747Z,47.88
2022-11-05T09:09:32.818Z,47.43
2022-11-05T09:12:17.917Z,47.22
2022-11-05T09:14:47.775Z,47.26
2022-11-05T09:17:19.924Z,47.06
2022-11-05T09:19:51.298Z,44.45
2022-11-05T09:22:21.097Z,41.95
2022-11-05T09:24:53.556Z,38.84
2022-11-05T09:27:23.355Z,38.19
2022-11-05T09:29:53.115Z,35.89
2022-11-05T09:32:23.309Z,36.22
2022-11-05T09:34:53.200Z,35.07
2022-11-05T09:37:22.951Z,34.02
2022-11-05T09:39:55.499Z,33.26
2022-11-05T09:42:32.062Z,31.66
2022-11-05T09:45:06.268Z,29.63
2022-11-05T09:47:39.475Z,29.41
2022-11-05T09:50:12.386Z,28.69
2022-11-05T09:52:42.200Z,28.47
2022-11-05T09:55:24.244Z,27.21
2022-11-05T09:57:59.581Z,26.46
2022-11-05T10:00:33.753Z,25.90
2022-11-05T10:03:10.580Z,26.49
2022-11-05T10:05:42.993Z,25.40
2022-11-05T10:08:18.037Z,24.84
2022-11-05T10:10:53.261Z,24.05
2022-11-05T10:13:28.180Z,24.08
2022-11-05T10:16:04.098Z,23.46
2022-11-05T10:18:37.362Z,23.24
2022-11-05T10:21:08.476Z,22.50
2022-11-05T10:23:39.185Z,21.94
2022-11-05T10:26:16.523Z,22.30
2022-11-05T10:28:46.369Z,21.55
2022-11-05T10:31:17.841Z,21.13
2022-11-05T10:33:51.903Z,20.76
2022-11-05T10:36:26.942Z,20.35
2022-11-05T10:38:59.839Z,20.06
2022-11-05T10:41:45.382Z,19.33
2022-11-05T10:44:28.868Z,18.64
2022-11-05T10:47:12.517Z,18.82
2022-11-05T10:49:54.311Z,18.13
2022-11-05T10:52:28.303Z,17.64
2022-11-05T10:55:03.625Z,16.96
2022-11-05T10:57:38.361Z,16.67
2022-11-05T11:00:28.336Z,17.37
2022-11-05T11:03:01.148Z,16.95
2022-11-05T11:05:33.304Z,17.77
2022-11-05T11:08:06.463Z,17.65
2022-11-05T11:10:43.896Z,18.00
2022-11-05T11:13:25.059Z,17.26
2022-11-05T11:15:55.281Z,16.64
2022-11-05T11:18:34.706Z,16.08
2022-11-05T11:21:15.275Z,15.90
2022-11-05T11:23:46.739Z,15.62
2022-11-05T11:26:16.777Z,15.24
2022-11-05T11:28:51.394Z,14.92
2022-11-05T11:31:26.209Z,14.34
2022-11-05T11:34:01.807Z,14.39
2022-11-05T11:36:37.714Z,14.09
2022-11-05T11:39:09.801Z,14.23
2022-11-05T11:41:42.559Z,14.43
2022-11-05T11:44:19.244Z,13.80
2022-11-05T11:46:52.101Z,12.87
2022-11-05T11:49:43.408Z,13.60
2022-11-05T11:52:16.623Z,12.32
2022-11-05T11:54:46.429Z,12.23
2022-11-05T11:57:24.482Z,12.45
2022-11-05T12:00:08.805Z,12.16
2022-11-05T12:03:09.656Z,13.69
2022-11-05T12:05:47.026Z,15.29
2022-11-05T12:08:33.413Z,17.68
2022-11-05T12:11:08.718Z,19.19
2022-11-05T12:13:54.061Z,20.54
2022-11-05T12:16:36.600Z,21.91
2022-11-05T12:19:19.180Z,20.91
2022-11-05T12:21:56.939Z,20.40
2022-11-05T12:24:50.716Z,20.91
2022-11-05T12:27:30.797Z,22.22
2022-11-05T12:30:05.732Z,23.10
2022-11-05T12:33:05.890Z,24.78
2022-11-05T12:35:48.882Z,25.52
2022-11-05T12:38:34.327Z,26.24
2022-11-05T12:41:14.735Z,26.26
2022-11-05T12:43:58.437Z,27.35
2022-11-05T12:46:37.377Z,28.45
2022-11-05T12:49:32.285Z,28.63
2022-11-05T12:52:13.354Z,28.82
2022-11-05T12:55:01.166Z,29.51
2022-11-05T12:57:35.585Z,29.98
2022-11-05T13:00:10.685Z,29.16
2022-11-05T13:02:45.539Z,29.95
2022-11-05T13:05:23.080Z,30.26
2022-11-05T13:08:00.753Z,31.11
2022-11-05T13:10:36.071Z,31.25
2022-11-05T13:13:14.178Z,29.28
2022-11-05T13:15:52.237Z,29.13
2022-11-05T13:18:28.274Z,28.80
2022-11-05T13:21:05.016Z,29.96
2022-11-05T13:23:42.653Z,30.90
2022-11-05T13:26:19.836Z,31.82
2022-11-05T13:28:56.705Z,31.84
2022-11-05T13:31:32.993Z,31.84
2022-11-05T13:34:08.996Z,30.91
2022-11-05T13:37:03.014Z,30.83
2022-11-05T13:39:38.280Z,31.93
2022-11-05T13:42:42.729Z,32.36
2022-11-05T13:45:38.580Z,33.70
2022-11-05T13:48:44.315Z,33.97
2022-11-05T13:51:37.685Z,34.06
2022-11-05T13:54:44.887Z,34.57
2022-11-05T13:57:45.400Z,34.52
2022-11-05T14:00:20.404Z,33.26
2022-11-05T14:02:55.070Z,32.82
2022-11-05T14:05:29.997Z,33.03
2022-11-05T14:08:01.956Z,33.25
2022-11-05T14:10:40.607Z,33.11
2022-11-05T14:13:22.505Z,34.31
2022-11-05T14:15:59.517Z,34.25
2022-11-05T14:18:41.910Z,35.15
2022-11-05T14:21:48.951Z,35.25
2022-11-05T14:24:29.482Z,35.55
2022-11-05T14:27:44.173Z,35.86
2022-11-05T14:30:45.565Z,35.73
2022-11-05T14:33:33.067Z,35.54
2022-11-05T14:36:34.757Z,35.41
2022-11-05T14:39:23.384Z,36.13
2022-11-05T14:42:05.747Z,36.23
2022-11-05T14:44:39.233Z,36.51
2022-11-05T14:47:22.828Z,37.02
2022-11-05T14:49:56.722Z,36.89
2022-11-05T14:52:27.052Z,37.46
2022-11-05T14:54:59.759Z,37.43
2022-11-05T14:57:59.647Z,37.72
2022-11-05T15:00:50.328Z,37.98
2022-11-05T15:03:39.752Z,38.34
2022-11-05T15:06:28.472Z,38.57
2022-11-05T15:09:16.149Z,38.33
2022-11-05T15:11:52.581Z,38.87
2022-11-05T15:14:30.689Z,39.36
2022-11-05T15:17:11.630Z,39.33
2022-11-05T15:19:43.969Z,39.53
2022-11-05T15:22:25.801Z,40.08
2022-11-05T15:24:55.881Z,40.25
2022-11-05T15:27:40.276Z,39.97
2022-11-05T15:30:21.083Z,40.26
2022-11-05T15:32:54.111Z,40.52
2022-11-05T15:35:27.106Z,40.43
2022-11-05T15:38:02.126Z,39.87
2022-11-05T15:40:35.538Z,40.52
2022-11-05T15:43:14.516Z,40.86
2022-11-05T15:45:44.606Z,40.98
2022-11-05T15:48:22.567Z,41.53
2022-11-05T15:50:52.637Z,41.24
2022-11-05T15:56:28.034Z,41.48
2022-11-05T15:59:01.817Z,41.84
2022-11-05T16:01:33.544Z,41.53
2022-11-05T16:04:14.173Z,42.11
2022-11-05T16:06:46.370Z,41.87
2022-11-05T16:09:24.746Z,42.17
2022-11-05T16:12:11.832Z,41.99
2022-11-05T16:14:42.314Z,42.02
2022-11-05T16:17:23.261Z,41.86
2022-11-05T16:19:56.607Z,42.11
2022-11-05T16:22:26.653Z,42.11
2022-11-05T16:24:56.482Z,42.25
2022-11-05T16:27:26.294Z,42.30
2022-11-05T16:29:58.634Z,42.31
2022-11-05T16:32:31.549Z,41.94
2022-11-05T16:35:06.206Z,42.53
2022-11-05T16:37:46.344Z,42.32
2022-11-05T16:40:21.390Z,42.60
2022-11-05T16:42:52.080Z,42.53
2022-11-05T16:45:24.372Z,42.98
2022-11-05T16:47:54.780Z,42.95
2022-11-05T16:50:33.141Z,42.68
2022-11-05T16:53:02.936Z,42.80
2022-11-05T16:55:34.365Z,42.93
2022-11-05T16:58:04.214Z,43.21
2022-11-05T17:00:34.099Z,42.99
2022-11-05T17:03:04.242Z,43.05
2022-11-05T17:05:36.721Z,43.30
2022-11-05T17:08:06.574Z,43.06
2022-11-05T17:10:36.515Z,43.24
2022-11-05T17:13:06.406Z,43.24
2022-11-05T17:15:37.649Z,43.46
2022-11-05T17:18:08.236Z,43.53
2022-11-05T17:20:42.719Z,43.29
2022-11-05T17:23:14.679Z,43.21
2022-11-05T17:25:48.433Z,43.59
2022-11-05T17:28:18.999Z,43.67
2022-11-05T17:30:52.873Z,43.79
2022-11-05T17:33:24.130Z,43.92
2022-11-05T17:35:56.872Z,43.96
2022-11-05T17:38:28.219Z,44.04
2022-11-05T17:40:57.997Z,44.19
2022-11-05T17:43:27.932Z,44.33
2022-11-05T17:46:04.064Z,44.42
2022-11-05T17:48:34.386Z,45.04
2022-11-05T17:51:07.696Z,44.91
2022-11-05T17:53:37.528Z,44.80
2022-11-05T17:56:11.257Z,44.74
2022-11-05T17:58:41.839Z,45.02
2022-11-05T18:01:27.112Z,44.79
2022-11-05T18:03:57.020Z,44.60
2022-11-05T18:06:29.483Z,44.85
2022-11-05T18:08:59.707Z,44.79
2022-11-05T18:11:29.519Z,44.75
2022-11-05T18:13:59.337Z,45.14
2022-11-05T18:16:29.462Z,44.98
2022-11-05T18:18:59.283Z,45.07
2022-11-05T18:21:31.718Z,45.33
2022-11-05T18:24:01.518Z,44.96
2022-11-05T18:26:31.309Z,44.79
2022-11-05T18:29:03.086Z,44.81
2022-11-05T18:31:33.230Z,44.94
2022-11-05T18:34:03.624Z,45.04
2022-11-05T18:36:36.129Z,44.77
2022-11-05T18:39:07.452Z,45.00
2022-11-05T18:41:37.298Z,45.07
2022-11-05T18:44:07.734Z,45.25
2022-11-05T18:46:57.062Z,45.17
2022-11-05T18:49:27.865Z,45.09
2022-11-05T18:52:00.255Z,45.46
2022-11-05T18:54:30.083Z,45.31
2022-11-05T18:56:59.915Z,45.62
2022-11-05T18:59:37.711Z,45.71
2022-11-05T19:02:08.703Z,45.55
2022-11-05T19:04:39.360Z,45.66
2022-11-05T19:07:14.006Z,45.76
2022-11-05T19:09:43.938Z,45.59
2022-11-05T19:12:13.808Z,45.33
2022-11-05T19:14:44.693Z,45.34
2022-11-05T19:17:14.641Z,45.26
2022-11-05T19:19:44.715Z,45.58
2022-11-05T19:22:17.179Z,46.01
2022-11-05T19:24:47.045Z,45.82
2022-11-05T19:27:16.844Z,45.81
2022-11-05T19:29:46.817Z,45.37
2022-11-05T19:32:16.880Z,45.98
2022-11-05T19:34:46.795Z,45.81
2022-11-05T19:37:19.953Z,45.69
2022-11-05T19:39:49.790Z,45.79
2022-11-05T19:42:19.687Z,45.76
2022-11-05T19:44:49.604Z,45.99
2022-11-05T19:47:19.657Z,46.16
2022-11-05T19:49:49.600Z,46.31
2022-11-05T19:52:21.953Z,46.44
2022-11-05T19:54:52.004Z,46.44
2022-11-05T19:57:22.099Z,46.54
2022-11-05T19:59:54.871Z,46.83
2022-11-05T20:02:24.934Z,46.93
2022-11-05T20:04:54.959Z,46.58
2022-11-05T20:07:27.456Z,46.62
2022-11-05T20:09:57.426Z,46.54
2022-11-05T20:12:27.466Z,46.68
2022-11-05T20:14:57.415Z,46.74
2022-11-05T20:17:27.352Z,46.75
2022-11-05T20:19:57.305Z,46.84
2022-11-05T20:22:29.823Z,47.04
2022-11-05T20:24:59.633Z,47.10
2022-11-05T20:27:29.513Z,46.96
2022-11-05T20:29:59.272Z,47.17
2022-11-05T20:32:29.029Z,47.25
2022-11-05T20:34:58.989Z,47.27
2022-11-05T20:37:31.373Z,47.40
2022-11-05T20:40:01.354Z,47.14
2022-11-05T20:42:31.176Z,47.32
2022-11-05T20:45:01.025Z,47.31
2022-11-05T20:47:31.512Z,47.21
2022-11-05T20:50:02.124Z,46.95
2022-11-05T20:52:34.530Z,47.13
2022-11-05T20:55:04.524Z,47.10
2022-11-05T20:57:34.378Z,47.14
2022-11-05T21:00:07.225Z,47.41
2022-11-05T21:02:37.885Z,47.45
2022-11-05T21:05:09.777Z,46.92
2022-11-05T21:07:42.476Z,46.63
2022-11-05T21:10:12.687Z,46.20
2022-11-05T21:12:45.232Z,46.05
2022-11-05T21:15:15.248Z,45.82
2022-11-05T21:17:45.355Z,46.28
2022-11-05T21:20:15.795Z,46.26
2022-11-05T21:22:48.440Z,45.89
2022-11-05T21:25:18.470Z,46.35
2022-11-05T21:27:48.357Z,46.30
2022-11-05T21:30:18.629Z,46.53
2022-11-05T21:32:48.705Z,46.42
2022-11-05T21:35:18.941Z,46.67
2022-11-05T21:37:51.346Z,46.83
2022-11-05T21:40:21.120Z,47.15
2022-11-05T21:42:51.094Z,47.72
2022-11-05T21:45:23.959Z,47.85
2022-11-05T21:47:53.857Z,48.15
2022-11-05T21:50:45.002Z,48.05
2022-11-05T21:53:32.400Z,48.19
2022-11-05T21:56:14.746Z,47.99
2022-11-05T21:58:56.959Z,47.94
2022-11-05T22:01:26.775Z,48.03
2022-11-05T22:04:01.715Z,47.66
2022-11-05T22:06:35.129Z,47.61
2022-11-05T22:09:07.655Z,47.98
2022-11-05T22:11:39.048Z,48.06
2022-11-05T22:14:08.895Z,47.98
2022-11-05T22:16:38.853Z,47.89
2022-11-05T22:19:09.306Z,47.71
2022-11-05T22:21:39.135Z,47.80
2022-11-05T22:24:12.530Z,47.93
2022-11-05T22:26:43.282Z,47.95
2022-11-05T22:29:13.795Z,47.90
2022-11-05T22:31:43.665Z,47.73
2022-11-05T22:34:14.294Z,47.99
2022-11-05T22:36:44.235Z,48.31
2022-11-05T22:39:16.756Z,47.89
2022-11-05T22:41:46.947Z,48.06
2022-11-05T22:44:17.356Z,48.22
2022-11-05T22:46:47.428Z,48.20
2022-11-05T22:49:17.305Z,47.99
2022-11-05T22:51:48.158Z,48.27
2022-11-05T22:54:20.624Z,48.31
2022-11-05T22:56:50.561Z,48.51
2022-11-05T22:59:20.454Z,48.78
2022-11-05T23:01:50.764Z,48.89
2022-11-05T23:04:20.744Z,48.86
2022-11-05T23:07:02.958Z,49.00
2022-11-05T23:09:49.963Z,48.93
2022-11-05T23:12:26.181Z,49.03
2022-11-05T23:14:57.017Z,48.90
2022-11-05T23:17:39.843Z,49.07
2022-11-05T23:20:27.261Z,48.80
2022-11-05T23:23:09.566Z,48.50
2022-11-05T23:25:42.016Z,48.60
2022-11-05T23:28:14.146Z,48.85
2022-11-05T23:30:59.340Z,48.89
2022-11-05T23:33:29.152Z,49.45
2022-11-05T23:36:11.415Z,49.25
2022-11-05T23:38:41.398Z,49.37
2022-11-05T23:41:26.378Z,49.88
2022-11-05T23:44:08.597Z,50.02
2022-11-05T23:46:50.886Z,49.87
2022-11-05T23:49:20.760Z,49.78
2022-11-05T23:51:51.638Z,49.85
2022-11-05T23:54:22.019Z,49.73
2022-11-05T23:56:54.413Z,49.88
2022-11-05T23:59:24.410Z,50.39
